Osgood, IN (47037)

9:32 AM EDT on October 24, 2014 (GMT -0400)
KINBATES2 | Change Station
CLOSE
Current Station
Personal Weather Station
Location: Batesville, IN
Elevation: 974 ft
Nearby Weather Stations

Elev 974 ft 39.29 °N, 85.23 °W | Updated 9 minutes ago

Partly Cloudy
Partly Cloudy
38.3 °F
Feels Like 38 °F
N
0.0
Wind Variable Wind from NNW
Gusts 0.0 mph

Today
High -- | Low -- °F
--% Chance of Precip.
Yesterday
High -- | Low -- °F
Precip. -- in
8:00 AM 6:49 PM
New Moon, 0% visible
Pressure 30.14 in
Visibility 5.0 miles
Clouds Clear
Windchill 38 °F
Dew Point 38 °F
Humidity 99%
Rainfall 0.00 in
Snow Depth Not available.
UV 0 out of 12
Pollen .90 out of 12
Air Quality Not available.
Flu Activity Sporadic
METAR KBAK 241255Z 00000KT 5SM BR SKC 03/03 A3014

More Conditions Fewer Conditions

Pressure 30.14 in
Visibility 5.0 miles
Clouds Clear
Windchill 38 °F
Dew Point 38 °F
Humidity 99%
Rainfall 0.00 in
Snow Depth Not available.
UV 0 out of 12
Pollen .90 out of 12
Air Quality Not available.
Flu Activity Sporadic
METAR KBAK 241255Z 00000KT 5SM BR SKC 03/03 A3014

More Conditions Fewer Conditions

10-Day Weather Forecast

Almanac

Astronomy

Oct. 24, 2014 Rise Set
Actual Time 8:00 AM EDT 6:49 PM EDT
Civil Twilight 7:32 AM EDT 7:17 PM EDT
Nautical Twilight 7:01 AM EDT 7:48 PM EDT
Astronomical Twilight 6:30 AM EDT 8:19 PM EDT
Moon 8:38 AM EDT 7:29 PM EDT
Length of Visible Light 11h 44m
Length of Day
10h 49m
Tomorrow will be 2m 21s shorter.
New Moon, 0% of the Moon is Illuminated
Today
New Moon
Oct 30
First Quarter
Nov 6
Full
Nov 14
Last Quarter
Nov 22
New

Today's Extremes

State Highs State Lows

Community

WunderPhotos

Upload Photos

1,764,550 photos uploaded!

WunderBlogs® & News

Nearby

Snow Depth

Station Depth Elevation
No new snow has been reported.

Earthquake Activity

City Distance Mag. Time & Date
No recent earthquake activity has been reported nearby.
Minimum magnitude displayed is 2.5.

Coastal Water Temperatures

Place Temperature
No Stations Reporting

Nearby Weather Stations